Agonistis — SVBC3 — position and weather

sailwx.info

Track history (hours):
 
Tides and Currents Weather Stations Pressure Air Temp Water Temp Dewpoint Dewpoint Depression Visibility Wind Speed Wind Dir Waves Ship Positions

Agonistis

Last reported at 2016-May-18 21:04 UTC. Time now 2016-May-27 04:28 UTC.
Position N 22°04' E 114°04'.
Warning: this ship's position is 8 days out of date.

Length 196 m; draft 7.2 m.

Type: Cargo ship. MMSI: 241048000.

Date/timePositionNaut miles runAvg speedWind from/ knotsBaromVisibWave heightAir tempDewpointWater temp
2016-May-18 21:04N 22°04' E 114°04'7 0.2
2016-May-17 07:13N 22°09' E 114°09'0 0.0
2016-May-17 06:13N 22°09' E 114°09'0 0.0
2016-May-17 02:07N 22°10' E 114°09'0 0.0
2016-May-16 11:25N 22°10' E 114°09'0 0.2
2016-May-16 10:33N 22°09' E 114°09'7 0.9
2016-May-16 03:10N 22°05' E 114°05'10 0.3
2016-May-14 18:06N 22°06' E 113°54'610.3
2016-May-14 17:33N 22°07' E 113°48'1110.8
2016-May-14 16:34N 22°18' E 113°48'2713.4
2016-May-14 14:33N 22°44' E 113°40'1010.4
2016-May-14 13:33N 22°53' E 113°34'10 9.5
2016-May-14 12:33N 23°02' E 113°31'1 1.1
2016-May-14 11:27N 23°03' E 113°31'0 0.0
2016-May-14 09:27N 23°03' E 113°31'0 0.0
2016-May-14 08:33N 23°03' E 113°31'0 0.0
2016-May-14 07:27N 23°03' E 113°31'0 0.0
2016-May-14 06:27N 23°03' E 113°31'0 0.0
2016-May-14 05:27N 23°03' E 113°31'0 0.0
2016-May-14 04:33N 23°03' E 113°31'0 0.0
2016-May-14 03:27N 23°03' E 113°31'0 0.0
2016-May-14 02:27N 23°03' E 113°31'0 0.0
2016-May-14 01:27N 23°03' E 113°31'0 0.0
2016-May-14 00:21N 23°03' E 113°31'0 0.0
2016-May-13 22:33N 23°03' E 113°31'0 0.0
2016-May-13 21:33N 23°03' E 113°31'0 0.0
2016-May-13 20:33N 23°03' E 113°31'0 0.0
2016-May-13 19:21N 23°03' E 113°31'0 0.0
2016-May-13 18:27N 23°03' E 113°31'0 0.0
2016-May-13 17:33N 23°03' E 113°31'0 0.0
2016-May-13 16:33N 23°03' E 113°31'0 0.0
2016-May-13 15:21N 23°03' E 113°31'0 0.0
2016-May-13 12:33N 23°03' E 113°31'0 0.0
2016-May-13 11:33N 23°03' E 113°31'0 0.0
2016-May-13 09:09N 23°03' E 113°31'0 0.1
2016-May-13 08:33N 23°03' E 113°30'0 0.0
2016-May-13 06:33N 23°03' E 113°30'0 0.0
2016-May-13 05:33N 23°03' E 113°30'0 0.0
2016-May-13 04:33N 23°03' E 113°30'0 0.0
2016-May-13 02:33N 23°03' E 113°30'0 0.0
2016-May-13 01:27N 23°03' E 113°30'0 0.0
2016-May-12 23:27N 23°03' E 113°30'0 0.0
2016-May-12 22:15N 23°03' E 113°30'0 0.0
2016-May-12 21:27N 23°03' E 113°30'0 0.0
2016-May-12 20:33N 23°03' E 113°30'0 0.0
2016-May-12 18:33N 23°03' E 113°30'0 0.0
2016-May-12 17:15N 23°03' E 113°30'0 0.0
2016-May-12 16:27N 23°03' E 113°30'0 0.0
2016-May-12 15:15N 23°03' E 113°30'0 0.0
2016-May-12 14:33N 23°03' E 113°30'0 0.0
2016-May-12 13:03N 23°03' E 113°30'0 0.0
2016-May-12 12:33N 23°03' E 113°30'0 0.0
2016-May-12 11:33N 23°03' E 113°30'0 0.0
2016-May-12 10:33N 23°03' E 113°30'0 0.0
2016-May-12 09:33N 23°03' E 113°30'0 0.0
2016-May-12 08:15N 23°03' E 113°30'0 0.0
2016-May-12 07:33N 23°03' E 113°30'0 0.0
2016-May-12 06:15N 23°03' E 113°30'0 0.0
2016-May-12 05:27N 23°03' E 113°30'0 0.0
2016-May-12 04:33N 23°03' E 113°30'0 0.0
2016-May-12 02:27N 23°03' E 113°30'0 0.0
2016-May-12 01:27N 23°03' E 113°30'0 0.0
2016-May-12 00:33N 23°03' E 113°30'0 0.0
2016-May-11 23:03N 23°03' E 113°30'0 0.0
2016-May-11 22:33N 23°03' E 113°30'0 0.0
2016-May-11 21:33N 23°03' E 113°30'0 0.0
2016-May-11 20:27N 23°03' E 113°30'0 0.0
2016-May-11 19:33N 23°03' E 113°30'0 0.0
2016-May-11 18:09N 23°03' E 113°30'0 0.0
2016-May-11 17:33N 23°03' E 113°30'0 0.0
2016-May-11 15:33N 23°03' E 113°30'0 0.0
2016-May-11 14:33N 23°03' E 113°30'0 0.0
2016-May-11 13:21N 23°03' E 113°30'0 0.0
2016-May-11 12:27N 23°03' E 113°30'0 0.0
2016-May-11 11:33N 23°03' E 113°30'0 0.0
2016-May-11 10:27N 23°03' E 113°30'5 5.4
2016-May-11 09:33N 22°59' E 113°32'6 5.8
2016-May-11 08:27N 22°52' E 113°34'0 0.0
2016-May-11 07:21N 22°52' E 113°34'0 0.0
2016-May-11 06:15N 22°52' E 113°34'0 0.0
2016-May-11 04:27N 22°52' E 113°34'0 0.1
2016-May-11 03:27N 22°52' E 113°34'0 0.0
2016-May-11 02:33N 22°52' E 113°34'0 0.0
2016-May-11 01:21N 22°52' E 113°34'0 0.0
2016-May-11 00:33N 22°52' E 113°34'0 0.0
2016-May-10 23:27N 22°52' E 113°34'0 0.0
2016-May-10 22:33N 22°52' E 113°34'0 0.0
2016-May-10 21:27N 22°52' E 113°34'0 0.0
2016-May-10 20:33N 22°52' E 113°34'0 0.0
2016-May-10 19:33N 22°52' E 113°34'0 0.0
2016-May-10 18:21N 22°52' E 113°34'0 0.0
2016-May-10 17:09N 22°52' E 113°34'0 0.0
2016-May-10 16:21N 22°52' E 113°34'0 0.0
2016-May-10 14:27N 22°52' E 113°34'0 0.0
2016-May-10 12:33N 22°52' E 113°34'0 0.0
2016-May-10 10:33N 22°52' E 113°34'0 0.0
2016-May-10 09:21N 22°52' E 113°34'0 0.0
2016-May-10 08:33N 22°52' E 113°34'0 0.0
2016-May-10 07:33N 22°52' E 113°34'0 0.0
2016-May-10 06:21N 22°52' E 113°34'0 0.0
2016-May-10 04:27N 22°52' E 113°34'0 0.0
2016-May-10 03:33N 22°52' E 113°34'0 0.1
2016-May-10 02:27N 22°52' E 113°34'0 0.1
2016-May-10 01:21N 22°52' E 113°34'0 0.0
2016-May-10 00:03N 22°52' E 113°34'0 0.0
2016-May-09 23:33N 22°52' E 113°34'0 0.0
2016-May-09 22:27N 22°52' E 113°34'0 0.0
2016-May-09 20:09N 22°52' E 113°34'0 0.0
2016-May-09 19:33N 22°52' E 113°34'0 0.0
2016-May-09 18:27N 22°52' E 113°34'0 0.0
2016-May-09 16:33N 22°52' E 113°34'0 0.0
2016-May-09 15:27N 22°52' E 113°34'0 0.0
2016-May-09 13:15N 22°52' E 113°34'0 0.0
2016-May-09 12:27N 22°52' E 113°34'0 0.0
2016-May-09 10:33N 22°52' E 113°34'0 0.0
2016-May-09 09:27N 22°52' E 113°34'0 0.0
2016-May-09 08:33N 22°52' E 113°34'0 0.0
2016-May-09 07:21N 22°52' E 113°34'0 0.0
2016-May-09 06:33N 22°52' E 113°34'3 3.1
2016-May-09 05:33N 22°49' E 113°35'7 6.3
2016-May-09 04:28N 22°44' E 113°40'1 0.8
2016-May-09 03:32N 22°43' E 113°41'0 0.0
2016-May-09 02:28N 22°43' E 113°41'0 0.4
2016-May-09 01:33N 22°43' E 113°40'2110.1
2016-May-08 23:28N 22°23' E 113°47'1212.7
2016-May-08 22:33N 22°12' E 113°50'  
Track history (hours):
 
Tides and Currents Weather Stations Pressure Air Temp Water Temp Dewpoint Dewpoint Depression Visibility Wind Speed Wind Dir Waves Ship Positions

Agonistis

Last reported at 2016-May-18 21:04 UTC. Time now 2016-May-27 04:28 UTC.
Position N 22°04' E 114°04'.
Warning: this ship's position is 8 days out of date.

Length 196 m; draft 7.2 m.

Type: Cargo ship. MMSI: 241048000.

Date/timePositionNaut miles runAvg speedWind from/ knotsBaromVisibWave heightAir tempDewpointWater temp
2016-May-18 21:04N 22°04' E 114°04'7 0.2
2016-May-17 07:13N 22°09' E 114°09'0 0.0
2016-May-17 06:13N 22°09' E 114°09'0 0.0
2016-May-17 02:07N 22°10' E 114°09'0 0.0
2016-May-16 11:25N 22°10' E 114°09'0 0.2
2016-May-16 10:33N 22°09' E 114°09'7 0.9
2016-May-16 03:10N 22°05' E 114°05'10 0.3
2016-May-14 18:06N 22°06' E 113°54'610.3
2016-May-14 17:33N 22°07' E 113°48'1110.8
2016-May-14 16:34N 22°18' E 113°48'2713.4
2016-May-14 14:33N 22°44' E 113°40'1010.4
2016-May-14 13:33N 22°53' E 113°34'10 9.5
2016-May-14 12:33N 23°02' E 113°31'1 1.1
2016-May-14 11:27N 23°03' E 113°31'0 0.0
2016-May-14 09:27N 23°03' E 113°31'0 0.0
2016-May-14 08:33N 23°03' E 113°31'0 0.0
2016-May-14 07:27N 23°03' E 113°31'0 0.0
2016-May-14 06:27N 23°03' E 113°31'0 0.0
2016-May-14 05:27N 23°03' E 113°31'0 0.0
2016-May-14 04:33N 23°03' E 113°31'0 0.0
2016-May-14 03:27N 23°03' E 113°31'0 0.0
2016-May-14 02:27N 23°03' E 113°31'0 0.0
2016-May-14 01:27N 23°03' E 113°31'0 0.0
2016-May-14 00:21N 23°03' E 113°31'0 0.0
2016-May-13 22:33N 23°03' E 113°31'0 0.0
2016-May-13 21:33N 23°03' E 113°31'0 0.0
2016-May-13 20:33N 23°03' E 113°31'0 0.0
2016-May-13 19:21N 23°03' E 113°31'0 0.0
2016-May-13 18:27N 23°03' E 113°31'0 0.0
2016-May-13 17:33N 23°03' E 113°31'0 0.0
2016-May-13 16:33N 23°03' E 113°31'0 0.0
2016-May-13 15:21N 23°03' E 113°31'0 0.0
2016-May-13 12:33N 23°03' E 113°31'0 0.0
2016-May-13 11:33N 23°03' E 113°31'0 0.0
2016-May-13 09:09N 23°03' E 113°31'0 0.1
2016-May-13 08:33N 23°03' E 113°30'0 0.0
2016-May-13 06:33N 23°03' E 113°30'0 0.0
2016-May-13 05:33N 23°03' E 113°30'0 0.0
2016-May-13 04:33N 23°03' E 113°30'0 0.0
2016-May-13 02:33N 23°03' E 113°30'0 0.0
2016-May-13 01:27N 23°03' E 113°30'0 0.0
2016-May-12 23:27N 23°03' E 113°30'0 0.0
2016-May-12 22:15N 23°03' E 113°30'0 0.0
2016-May-12 21:27N 23°03' E 113°30'0 0.0
2016-May-12 20:33N 23°03' E 113°30'0 0.0
2016-May-12 18:33N 23°03' E 113°30'0 0.0
2016-May-12 17:15N 23°03' E 113°30'0 0.0
2016-May-12 16:27N 23°03' E 113°30'0 0.0
2016-May-12 15:15N 23°03' E 113°30'0 0.0
2016-May-12 14:33N 23°03' E 113°30'0 0.0
2016-May-12 13:03N 23°03' E 113°30'0 0.0
2016-May-12 12:33N 23°03' E 113°30'0 0.0
2016-May-12 11:33N 23°03' E 113°30'0 0.0
2016-May-12 10:33N 23°03' E 113°30'0 0.0
2016-May-12 09:33N 23°03' E 113°30'0 0.0
2016-May-12 08:15N 23°03' E 113°30'0 0.0
2016-May-12 07:33N 23°03' E 113°30'0 0.0
2016-May-12 06:15N 23°03' E 113°30'0 0.0
2016-May-12 05:27N 23°03' E 113°30'0 0.0
2016-May-12 04:33N 23°03' E 113°30'0 0.0
2016-May-12 02:27N 23°03' E 113°30'0 0.0
2016-May-12 01:27N 23°03' E 113°30'0 0.0
2016-May-12 00:33N 23°03' E 113°30'0 0.0
2016-May-11 23:03N 23°03' E 113°30'0 0.0
2016-May-11 22:33N 23°03' E 113°30'0 0.0
2016-May-11 21:33N 23°03' E 113°30'0 0.0
2016-May-11 20:27N 23°03' E 113°30'0 0.0
2016-May-11 19:33N 23°03' E 113°30'0 0.0
2016-May-11 18:09N 23°03' E 113°30'0 0.0
2016-May-11 17:33N 23°03' E 113°30'0 0.0
2016-May-11 15:33N 23°03' E 113°30'0 0.0
2016-May-11 14:33N 23°03' E 113°30'0 0.0
2016-May-11 13:21N 23°03' E 113°30'0 0.0
2016-May-11 12:27N 23°03' E 113°30'0 0.0
2016-May-11 11:33N 23°03' E 113°30'0 0.0
2016-May-11 10:27N 23°03' E 113°30'5 5.4
2016-May-11 09:33N 22°59' E 113°32'6 5.8
2016-May-11 08:27N 22°52' E 113°34'0 0.0
2016-May-11 07:21N 22°52' E 113°34'0 0.0
2016-May-11 06:15N 22°52' E 113°34'0 0.0
2016-May-11 04:27N 22°52' E 113°34'0 0.1
2016-May-11 03:27N 22°52' E 113°34'0 0.0
2016-May-11 02:33N 22°52' E 113°34'0 0.0
2016-May-11 01:21N 22°52' E 113°34'0 0.0
2016-May-11 00:33N 22°52' E 113°34'0 0.0
2016-May-10 23:27N 22°52' E 113°34'0 0.0
2016-May-10 22:33N 22°52' E 113°34'0 0.0
2016-May-10 21:27N 22°52' E 113°34'0 0.0
2016-May-10 20:33N 22°52' E 113°34'0 0.0
2016-May-10 19:33N 22°52' E 113°34'0 0.0
2016-May-10 18:21N 22°52' E 113°34'0 0.0
2016-May-10 17:09N 22°52' E 113°34'0 0.0
2016-May-10 16:21N 22°52' E 113°34'0 0.0
2016-May-10 14:27N 22°52' E 113°34'0 0.0
2016-May-10 12:33N 22°52' E 113°34'0 0.0
2016-May-10 10:33N 22°52' E 113°34'0 0.0
2016-May-10 09:21N 22°52' E 113°34'0 0.0
2016-May-10 08:33N 22°52' E 113°34'0 0.0
2016-May-10 07:33N 22°52' E 113°34'0 0.0
2016-May-10 06:21N 22°52' E 113°34'0 0.0
2016-May-10 04:27N 22°52' E 113°34'0 0.0
2016-May-10 03:33N 22°52' E 113°34'0 0.1
2016-May-10 02:27N 22°52' E 113°34'0 0.1
2016-May-10 01:21N 22°52' E 113°34'0 0.0
2016-May-10 00:03N 22°52' E 113°34'0 0.0
2016-May-09 23:33N 22°52' E 113°34'0 0.0
2016-May-09 22:27N 22°52' E 113°34'0 0.0
2016-May-09 20:09N 22°52' E 113°34'0 0.0
2016-May-09 19:33N 22°52' E 113°34'0 0.0
2016-May-09 18:27N 22°52' E 113°34'0 0.0
2016-May-09 16:33N 22°52' E 113°34'0 0.0
2016-May-09 15:27N 22°52' E 113°34'0 0.0
2016-May-09 13:15N 22°52' E 113°34'0 0.0
2016-May-09 12:27N 22°52' E 113°34'0 0.0
2016-May-09 10:33N 22°52' E 113°34'0 0.0
2016-May-09 09:27N 22°52' E 113°34'0 0.0
2016-May-09 08:33N 22°52' E 113°34'0 0.0
2016-May-09 07:21N 22°52' E 113°34'0 0.0
2016-May-09 06:33N 22°52' E 113°34'3 3.1
2016-May-09 05:33N 22°49' E 113°35'7 6.3
2016-May-09 04:28N 22°44' E 113°40'1 0.8
2016-May-09 03:32N 22°43' E 113°41'0 0.0
2016-May-09 02:28N 22°43' E 113°41'0 0.4
2016-May-09 01:33N 22°43' E 113°40'2110.1
2016-May-08 23:28N 22°23' E 113°47'1212.7
2016-May-08 22:33N 22°12' E 113°50'  

Dump ship's entire track history